Time;durP1;ratioP1;P1;durP2;ratioP2;P2;SDS_P1;SDS_P2;PMS_P1;PMS_P2;Temp;Humidity;BMP_temperature;BMP_pressure;BME280_temperature;BME280_humidity;BME280_pressure;Samples;Min_cycle;Max_cycle;Signal;HPM_P1;HPM_P2
2022/06/17 00:01:12;;;;;;;;;;;;;;;16.90;58.22;101200.31;4977520;28;19914;-85
2022/06/17 00:03:40;;;;;;;;;;;;;;;16.93;58.53;101199.09;4972733;28;19949;-86
2022/06/17 00:06:05;;;;;;;;;;;;;;;16.92;58.43;101200.97;4971285;28;19918;-85
2022/06/17 00:11:10;;;;;;;;;;;;;;;16.87;58.10;101192.56;5010596;28;19921;-83
2022/06/17 00:13:41;;;;;;;;;;;;;;;16.81;58.15;101183.31;5020469;28;19971;-86
2022/06/17 00:16:14;;;;;;;;;;;;;;;16.86;58.03;101190.91;5020727;28;19920;-86
2022/06/17 00:18:50;;;;;;;;;;;;;;;16.81;58.05;101188.75;5023190;28;19972;-84
2022/06/17 00:21:26;;;;;;;;;;;;;;;16.71;58.55;101190.03;5020852;28;19917;-86
2022/06/17 00:23:53;;;;;;;;;;;;;;;16.77;58.55;101181.13;5019096;28;19937;-84
2022/06/17 00:26:19;;;;;;;;;;;;;;;16.76;58.67;101179.44;5012714;28;19918;-85
2022/06/17 00:28:47;;;;;;;;;;;;;;;16.73;59.00;101177.09;5010432;28;19976;-85
2022/06/17 00:31:13;;;;;;;;;;;;;;;16.74;59.23;101176.94;5009252;28;19913;-84
2022/06/17 00:33:39;;;;;;;;;;;;;;;16.73;59.35;101177.09;5010205;28;19968;-84
2022/06/17 00:36:08;;;;;;;;;;;;;;;16.75;59.29;101175.88;5013201;28;20052;-85
2022/06/17 00:38:37;;;;;;;;;;;;;;;16.54;60.23;101171.22;5013050;28;19917;-85
2022/06/17 00:41:14;;;;;;;;;;;;;;;16.49;60.03;101178.25;5012353;28;19913;-84
2022/06/17 00:43:42;;;;;;;;;;;;;;;16.49;59.95;101172.81;5014521;28;19928;-83
2022/06/17 00:46:34;;;;;;;;;;;;;;;16.41;60.23;101173.75;5029226;28;19956;-84
2022/06/17 00:49:17;;;;;;;;;;;;;;;16.42;60.45;101179.00;5014376;28;19917;-86
2022/06/17 00:51:49;;;;;;;;;;;;;;;16.43;60.45;101174.41;5013745;28;19936;-86
2022/06/17 00:54:31;;;;;;;;;;;;;;;16.40;60.51;101169.34;5013275;28;19917;-86
2022/06/17 00:56:56;;;;;;;;;;;;;;;16.43;60.15;101166.25;5026811;28;20300;-86
2022/06/17 00:59:32;;;;;;;;;;;;;;;16.42;60.08;101165.41;5027684;28;19924;-87
2022/06/17 01:02:00;;;;;;;;;;;;;;;16.45;59.94;101175.06;5030484;28;19913;-85
2022/06/17 01:04:34;;;;;;;;;;;;;;;16.38;60.29;101163.25;5030389;28;19917;-86
2022/06/17 01:07:17;;;;;;;;;;;;;;;16.44;59.89;101163.38;5009785;28;19910;-87
2022/06/17 01:10:08;;;;;;;;;;;;;;;;;;;;;
2022/06/17 01:12:37;;;;;;;;;;;;;;;16.44;59.98;101168.78;5029256;28;19980;-84
2022/06/17 01:15:10;;;;;;;;;;;;;;;16.42;59.91;101160.00;5018385;28;19936;-84
2022/06/17 01:17:37;;;;;;;;;;;;;;;16.46;59.84;101163.19;5010798;28;19914;-85
2022/06/17 01:20:06;;;;;;;;;;;;;;;16.42;59.87;101167.31;5020034;28;19913;-84
2022/06/17 01:22:41;;;;;;;;;;;;;;;16.38;60.05;101165.97;5014147;28;20345;-85
2022/06/17 01:25:19;;;;;;;;;;;;;;;16.07;60.62;101161.56;4996271;28;19945;-85
2022/06/17 01:28:09;;;;;;;;;;;;;;;16.17;60.39;101151.28;5012185;28;20369;-84
2022/06/17 01:30:37;;;;;;;;;;;;;;;16.18;60.25;101147.56;5009302;28;19924;-85
2022/06/17 01:33:07;;;;;;;;;;;;;;;16.24;60.23;101143.25;5013547;28;19913;-85
2022/06/17 01:35:35;;;;;;;;;;;;;;;16.14;60.25;101139.97;5013039;28;19921;-85
2022/06/17 01:38:01;;;;;;;;;;;;;;;16.07;60.91;101150.72;5008702;28;19968;-87
2022/06/17 01:40:28;;;;;;;;;;;;;;;15.95;61.07;101146.78;5022202;28;19917;-86
2022/06/17 01:42:54;;;;;;;;;;;;;;;15.92;61.16;101145.28;4996092;28;19921;-87
2022/06/17 01:45:20;;;;;;;;;;;;;;;15.92;61.55;101141.69;5009984;28;19976;-86
2022/06/17 01:47:47;;;;;;;;;;;;;;;15.84;61.17;101145.34;5011261;28;19949;-84
2022/06/17 01:50:32;;;;;;;;;;;;;;;15.90;61.25;101132.94;5006318;28;19913;-87
2022/06/17 01:53:22;;;;;;;;;;;;;;;15.89;61.53;101125.81;5009498;28;19929;-85
2022/06/17 01:55:52;;;;;;;;;;;;;;;15.92;61.21;101133.56;5007711;28;19917;-85
2022/06/17 01:58:23;;;;;;;;;;;;;;;16.01;61.25;101133.31;4994543;28;20377;-84
2022/06/17 02:00:49;;;;;;;;;;;;;;;15.92;61.22;101125.44;4998040;28;20282;-86
2022/06/17 02:03:53;;;;;;;;;;;;;;;15.74;61.72;101129.34;4996473;28;19967;-87
2022/06/17 02:06:22;;;;;;;;;;;;;;;15.59;62.49;101123.84;5011350;28;19925;-86
2022/06/17 02:08:47;;;;;;;;;;;;;;;15.70;62.20;101133.44;4990829;28;19923;-88
2022/06/17 02:11:16;;;;;;;;;;;;;;;15.60;62.73;101128.25;5005125;28;19936;-86
2022/06/17 02:13:41;;;;;;;;;;;;;;;15.78;62.15;101130.66;5032706;28;20466;-87
2022/06/17 02:16:07;;;;;;;;;;;;;;;15.78;62.06;101119.81;5007927;28;19917;-86
2022/06/17 02:18:37;;;;;;;;;;;;;;;15.75;62.41;101124.75;5009725;28;19957;-86
2022/06/17 02:21:11;;;;;;;;;;;;;;;15.68;62.90;101127.31;5023747;28;19928;-85
2022/06/17 02:23:51;;;;;;;;;;;;;;;15.60;62.92;101124.69;5008247;28;19985;-86
2022/06/17 02:26:24;;;;;;;;;;;;;;;15.64;63.04;101131.44;5008221;28;19921;-85
2022/06/17 02:28:55;;;;;;;;;;;;;;;15.57;63.07;101130.50;5009656;28;20036;-85
2022/06/17 02:31:27;;;;;;;;;;;;;;;15.65;62.74;101129.56;5010474;28;19968;-87
2022/06/17 02:33:53;;;;;;;;;;;;;;;15.68;62.64;101137.31;4992310;28;19913;-85
2022/06/17 02:36:41;;;;;;;;;;;;;;;15.65;62.66;101135.00;5009317;28;19971;-86
2022/06/17 02:39:32;;;;;;;;;;;;;;;15.59;62.96;101133.84;4997483;28;20011;-86
2022/06/17 02:42:15;;;;;;;;;;;;;;;15.54;62.79;101134.38;4981913;28;20321;-86
2022/06/17 02:45:17;;;;;;;;;;;;;;;15.54;62.74;101128.13;5008060;28;20312;-87
2022/06/17 02:47:48;;;;;;;;;;;;;;;15.47;62.37;101140.72;5008362;28;19917;-87
2022/06/17 02:50:19;;;;;;;;;;;;;;;15.41;62.30;101135.00;5004248;28;19925;-85
2022/06/17 02:52:45;;;;;;;;;;;;;;;15.33;62.18;101142.34;4993189;28;19976;-85
2022/06/17 02:55:19;;;;;;;;;;;;;;;15.48;61.72;101142.41;5006367;28;19914;-86
2022/06/17 02:57:47;;;;;;;;;;;;;;;15.49;61.35;101146.78;5008939;28;19991;-86
2022/06/17 03:00:26;;;;;;;;;;;;;;;15.47;61.45;101154.25;5009591;28;20036;-85
2022/06/17 03:03:02;;;;;;;;;;;;;;;15.52;61.46;101151.84;5009946;28;19968;-86
2022/06/17 03:05:30;;;;;;;;;;;;;;;15.54;61.93;101144.38;5009656;28;20377;-86
2022/06/17 03:08:00;;;;;;;;;;;;;;;15.44;61.98;101139.22;5009028;28;19922;-85
2022/06/17 03:10:52;;;;;;;;;;;;;;;15.36;62.18;101136.59;5008513;28;19917;-85
2022/06/17 03:13:25;;;;;;;;;;;;;;;15.36;62.11;101136.59;5009516;28;19980;-86
2022/06/17 03:16:10;;;;;;;;;;;;;;;;;;;;;
2022/06/17 03:18:47;;;;;;;;;;;;;;;15.49;61.76;101136.78;4970250;28;19914;-87
2022/06/17 03:21:19;;;;;;;;;;;;;;;15.49;61.82;101135.97;4970965;28;19961;-86
2022/06/17 03:24:11;;;;;;;;;;;;;;;15.47;62.07;101143.41;4970618;28;19914;-86
2022/06/17 03:26:54;;;;;;;;;;;;;;;15.56;61.89;101136.91;4968703;28;19957;-84
2022/06/17 03:29:44;;;;;;;;;;;;;;;15.68;61.66;101146.28;4988221;28;19914;-86
2022/06/17 03:32:11;;;;;;;;;;;;;;;15.74;61.47;101142.88;4974362;28;19918;-84
2022/06/17 03:34:42;;;;;;;;;;;;;;;15.88;61.14;101140.41;4960315;28;19930;-84
2022/06/17 03:37:21;;;;;;;;;;;;;;;15.87;60.66;101138.69;4955506;28;19918;-84
2022/06/17 03:40:09;;;;;;;;;;;;;;;16.02;60.45;101142.28;4953264;28;19920;-85
2022/06/17 03:42:42;;;;;;;;;;;;;;;16.19;59.96;101142.97;4965438;28;19914;-86
2022/06/17 03:45:16;;;;;;;;;;;;;;;16.33;59.38;101136.69;4970819;28;19925;-86
2022/06/17 03:48:07;;;;;;;;;;;;;;;16.43;59.13;101133.69;4968997;28;20031;-86
2022/06/17 03:50:39;;;;;;;;;;;;;;;16.51;58.56;101130.91;4953784;28;19914;-85
2022/06/17 03:53:13;;;;;;;;;;;;;;;16.68;58.33;101126.94;4969845;28;19945;-86
2022/06/17 03:55:44;;;;;;;;;;;;;;;16.70;58.75;101128.63;4954043;28;19937;-85
2022/06/17 03:58:11;;;;;;;;;;;;;;;16.81;58.34;101120.88;4971537;28;20362;-85
2022/06/17 04:01:11;;;;;;;;;;;;;;;;;;;;;
2022/06/17 04:03:37;;;;;;;;;;;;;;;18.51;53.01;101117.25;4967552;28;19918;-83
2022/06/17 04:06:07;;;;;;;;;;;;;;;19.68;50.18;101123.47;4938179;28;20012;-86
2022/06/17 04:08:35;;;;;;;;;;;;;;;20.52;47.73;101121.03;4955609;28;19914;-85
2022/06/17 04:11:02;;;;;;;;;;;;;;;21.00;46.02;101116.03;4973416;28;20437;-86
2022/06/17 04:13:33;;;;;;;;;;;;;;;21.36;45.25;101113.69;4979760;28;19916;-87
2022/06/17 04:15:58;;;;;;;;;;;;;;;21.68;44.03;101112.63;5152683;23;19928;-86
2022/06/17 04:18:34;;;;;;;;;;;;;;;22.00;43.69;101115.25;5010019;28;20386;-85
2022/06/17 04:21:02;;;;;;;;;;;;;;;22.33;43.11;101123.16;5013629;28;20443;-85
2022/06/17 04:23:28;;;;;;;;;;;;;;;22.61;42.98;101120.97;5018547;28;19901;-85
2022/06/17 04:26:03;;;;;;;;;;;;;;;22.88;42.90;101127.78;5020461;28;20390;-85
2022/06/17 04:28:48;;;;;;;;;;;;;;;23.12;41.80;101116.94;5014179;28;19917;-85
2022/06/17 04:31:19;;;;;;;;;;;;;;;23.31;40.63;101123.19;5012341;28;20352;-86
2022/06/17 04:33:50;;;;;;;;;;;;;;;23.62;39.89;101122.06;5014185;28;20014;-88
2022/06/17 04:36:25;;;;;;;;;;;;;;;23.73;39.77;101107.50;5012520;28;19932;-83
2022/06/17 04:39:09;;;;;;;;;;;;;;;23.86;40.16;101111.13;4996068;28;19945;-83
2022/06/17 04:41:37;;;;;;;;;;;;;;;24.09;39.77;101104.78;5008182;28;19913;-83
2022/06/17 04:44:08;;;;;;;;;;;;;;;24.25;39.48;101101.31;5007618;28;19917;-85
2022/06/17 04:46:41;;;;;;;;;;;;;;;24.37;39.42;101107.66;5010765;28;21782;-84
2022/06/17 04:49:07;;;;;;;;;;;;;;;24.68;38.64;101110.19;5008191;28;19917;-83
2022/06/17 04:51:36;;;;;;;;;;;;;;;24.97;37.63;101108.31;5011631;28;19920;-86
2022/06/17 04:54:04;;;;;;;;;;;;;;;25.13;37.18;101101.19;5012409;28;19999;-83
2022/06/17 04:56:43;;;;;;;;;;;;;;;25.31;37.11;101102.91;5010357;28;20604;-80
2022/06/17 04:59:16;;;;;;;;;;;;;;;25.49;37.07;101111.75;5009989;28;19975;-82
2022/06/17 05:01:41;;;;;;;;;;;;;;;25.74;36.84;101113.28;5011982;28;19939;-81
2022/06/17 05:04:06;;;;;;;;;;;;;;;26.01;36.64;101123.63;4994734;28;20385;-83
2022/06/17 05:06:33;;;;;;;;;;;;;;;26.10;36.38;101116.59;5011313;28;20389;-82
2022/06/17 05:09:11;;;;;;;;;;;;;;;26.18;36.06;101126.38;5009479;28;20007;-81
2022/06/17 05:11:39;;;;;;;;;;;;;;;26.27;36.20;101122.06;5001620;28;20012;-82
2022/06/17 05:14:09;;;;;;;;;;;;;;;26.26;35.85;101123.16;5029320;28;19917;-81
2022/06/17 05:16:35;;;;;;;;;;;;;;;26.15;35.96;101122.16;5018108;28;19921;-85
2022/06/17 05:19:05;;;;;;;;;;;;;;;26.29;36.00;101129.00;5011107;28;19928;-84
2022/06/17 05:21:30;;;;;;;;;;;;;;;26.45;35.83;101132.78;5011711;28;19921;-82
2022/06/17 05:23:57;;;;;;;;;;;;;;;26.18;36.03;101131.88;5011183;28;19924;-82
2022/06/17 05:26:22;;;;;;;;;;;;;;;26.52;35.12;101124.31;5019518;28;19924;-83
2022/06/17 05:28:50;;;;;;;;;;;;;;;26.64;35.74;101127.81;5011419;28;20008;-85
2022/06/17 05:31:25;;;;;;;;;;;;;;;26.67;35.73;101126.50;5007442;28;20012;-89
2022/06/17 05:33:54;;;;;;;;;;;;;;;26.70;35.46;101129.56;4996359;28;19925;-90
2022/06/17 05:36:28;;;;;;;;;;;;;;;26.82;36.03;101136.84;5015343;28;19932;-89
2022/06/17 05:39:07;;;;;;;;;;;;;;;27.08;35.23;101130.53;5001304;28;20428;-91
2022/06/17 05:41:43;;;;;;;;;;;;;;;27.23;34.59;101137.31;5015266;28;19918;-89
2022/06/17 05:44:20;;;;;;;;;;;;;;;27.28;34.45;101135.47;5013693;28;19944;-89
2022/06/17 05:46:48;;;;;;;;;;;;;;;27.36;34.13;101126.69;5012429;28;19917;-93
2022/06/17 05:49:34;;;;;;;;;;;;;;;27.16;33.75;101121.78;5000224;28;19924;-90
2022/06/17 05:52:10;;;;;;;;;;;;;;;27.23;33.50;101121.63;5013196;28;20381;-91
2022/06/17 05:54:38;;;;;;;;;;;;;;;27.27;33.66;101121.91;5015661;28;19964;-89
2022/06/17 05:57:12;;;;;;;;;;;;;;;27.09;33.69;101123.94;5001821;28;19917;-87
2022/06/17 05:59:43;;;;;;;;;;;;;;;27.07;33.63;101117.84;5013208;28;19965;-89
2022/06/17 06:02:21;;;;;;;;;;;;;;;;;;;;;
2022/06/17 06:04:48;;;;;;;;;;;;;;;26.95;32.48;101123.50;5014394;28;19919;-84
2022/06/17 06:07:28;;;;;;;;;;;;;;;26.93;32.64;101117.41;5012332;28;20386;-91
2022/06/17 06:10:12;;;;;;;;;;;;;;;26.73;32.56;101123.50;5016727;28;19948;-90
2022/06/17 06:12:57;;;;;;;;;;;;;;;26.60;31.37;101112.91;5022923;28;20004;-89
2022/06/17 06:16:07;;;;;;;;;;;;;;;26.61;30.30;101113.72;5026209;28;20305;-90
2022/06/17 06:26:27;;;;;;;;;;;;;;;26.66;30.45;101117.34;5345475;23;19925;-92
2022/06/17 06:29:02;;;;;;;;;;;;;;;26.55;30.58;101114.72;4991147;28;19932;-89
2022/06/17 06:32:07;;;;;;;;;;;;;;;;;;;;;
2022/06/17 06:34:33;;;;;;;;;;;;;;;26.02;34.12;101117.03;4991040;28;19956;-90
2022/06/17 06:37:01;;;;;;;;;;;;;;;26.08;33.67;101116.00;5000627;28;19921;-90
2022/06/17 06:39:26;;;;;;;;;;;;;;;26.05;33.67;101116.50;4979337;28;19924;-91
2022/06/17 06:42:09;;;;;;;;;;;;;;;26.19;34.22;101112.31;4995958;28;19917;-90
2022/06/17 06:44:47;;;;;;;;;;;;;;;26.19;36.09;101106.78;4999195;28;19917;-85
2022/06/17 06:47:13;;;;;;;;;;;;;;;26.31;37.04;101106.69;4965336;28;19914;-85
2022/06/17 06:49:47;;;;;;;;;;;;;;;26.36;37.14;101106.75;4989562;28;20301;-85
2022/06/17 06:52:16;;;;;;;;;;;;;;;26.32;39.10;101100.09;4993748;28;19914;-86
2022/06/17 06:54:44;;;;;;;;;;;;;;;26.48;40.10;101104.72;4994154;28;19949;-86
2022/06/17 06:57:10;;;;;;;;;;;;;;;26.26;41.82;101107.44;4992435;28;19914;-86
2022/06/17 06:59:41;;;;;;;;;;;;;;;26.14;42.00;101103.97;4956244;28;20383;-87
2022/06/17 07:02:12;;;;;;;;;;;;;;;26.42;40.90;101100.22;4990524;28;19906;-84
2022/06/17 07:04:40;;;;;;;;;;;;;;;26.65;40.21;101098.34;4964374;28;19921;-86
2022/06/17 07:07:14;;;;;;;;;;;;;;;27.11;39.09;101096.91;4964469;28;19910;-86
2022/06/17 07:09:44;;;;;;;;;;;;;;;27.41;38.62;101097.47;4973688;28;19906;-89
2022/06/17 07:12:11;;;;;;;;;;;;;;;27.54;36.66;101106.16;4974104;28;19984;-84
2022/06/17 07:14:38;;;;;;;;;;;;;;;27.58;36.72;101099.00;4960017;28;19905;-85
2022/06/17 07:17:05;;;;;;;;;;;;;;;27.75;36.05;101106.31;4990819;28;19909;-87
2022/06/17 07:19:50;;;;;;;;;;;;;;;27.94;34.71;101099.28;4980745;28;19920;-84
2022/06/17 07:22:22;;;;;;;;;;;;;;;28.03;34.71;101093.28;4990611;28;19917;-86
2022/06/17 07:24:55;;;;;;;;;;;;;;;28.24;33.46;101100.56;4960542;28;20332;-87
2022/06/17 07:27:24;;;;;;;;;;;;;;;28.33;30.24;101101.72;5011923;28;19913;-86
2022/06/17 07:29:52;;;;;;;;;;;;;;;28.63;30.05;101094.66;5009916;28;19917;-87
2022/06/17 07:32:20;;;;;;;;;;;;;;;28.89;29.15;101100.28;5001950;28;20004;-86
2022/06/17 07:34:57;;;;;;;;;;;;;;;;;;;;;
2022/06/17 07:40:13;;;;;;;;;;;;;;;28.66;27.29;101090.53;5000321;28;19923;-84
2022/06/17 07:42:43;;;;;;;;;;;;;;;29.18;26.96;101084.88;5014001;28;19919;-85
2022/06/17 07:45:12;;;;;;;;;;;;;;;28.48;26.55;101089.94;5019155;28;19909;-84
2022/06/17 07:47:48;;;;;;;;;;;;;;;28.68;27.82;101091.94;5017873;28;19913;-86
2022/06/17 07:50:28;;;;;;;;;;;;;;;28.94;26.69;101086.44;5002907;28;19948;-86
2022/06/17 07:52:59;;;;;;;;;;;;;;;29.41;27.13;101082.69;5018397;28;20361;-85
2022/06/17 07:55:25;;;;;;;;;;;;;;;28.90;25.87;101082.59;5019776;28;19924;-86
2022/06/17 07:57:59;;;;;;;;;;;;;;;28.62;26.60;101080.00;4999847;28;20366;-86
2022/06/17 08:00:26;;;;;;;;;;;;;;;28.49;26.54;101085.22;4985058;28;19921;-86
2022/06/17 08:02:52;;;;;;;;;;;;;;;28.48;25.08;101080.81;5010091;28;19913;-85
2022/06/17 08:05:21;;;;;;;;;;;;;;;28.34;24.58;101078.50;5000907;28;20365;-85
2022/06/17 08:07:48;;;;;;;;;;;;;;;28.24;25.81;101081.22;4980027;28;19937;-86
2022/06/17 08:10:24;;;;;;;;;;;;;;;28.24;26.31;101084.00;5000556;28;19975;-85
2022/06/17 08:12:49;;;;;;;;;;;;;;;28.35;28.01;101084.84;5017063;28;20004;-83
2022/06/17 08:15:21;;;;;;;;;;;;;;;28.19;29.55;101095.03;5019642;28;19921;-89
2022/06/17 08:17:56;;;;;;;;;;;;;;;;;;;;;
2022/06/17 08:20:31;;;;;;;;;;;;;;;28.49;31.36;101093.50;5016832;28;19937;-88
2022/06/17 08:23:02;;;;;;;;;;;;;;;28.83;29.82;101089.22;5002514;28;20056;-89
2022/06/17 08:25:29;;;;;;;;;;;;;;;28.92;25.95;101095.06;5016183;28;19965;-86
2022/06/17 08:27:55;;;;;;;;;;;;;;;28.72;27.53;101093.03;4991858;28;20349;-88
2022/06/17 08:30:24;;;;;;;;;;;;;;;29.35;26.58;101092.91;4980697;28;19945;-85
2022/06/17 08:33:03;;;;;;;;;;;;;;;;;;;;;
2022/06/17 08:35:47;;;;;;;;;;;;;;;;;;;;;
2022/06/17 08:38:20;;;;;;;;;;;;;;;30.79;26.71;101092.59;4994804;28;19921;-91
2022/06/17 08:40:55;;;;;;;;;;;;;;;30.82;26.26;101101.19;4982149;28;19914;-88
2022/06/17 08:43:40;;;;;;;;;;;;;;;31.32;25.97;101101.97;4999901;28;19914;-91
2022/06/17 08:46:19;;;;;;;;;;;;;;;31.44;24.79;101089.69;4974892;28;20322;-89
2022/06/17 08:48:45;;;;;;;;;;;;;;;31.78;25.53;101094.41;4979719;28;20320;-86
2022/06/17 08:51:36;;;;;;;;;;;;;;;31.37;24.72;101105.84;4977041;28;19957;-92
2022/06/17 08:54:14;;;;;;;;;;;;;;;31.13;25.57;101107.38;4989457;28;19925;-91
2022/06/17 08:56:50;;;;;;;;;;;;;;;31.31;25.51;101108.66;4997886;28;20335;-92
2022/06/17 08:59:26;;;;;;;;;;;;;;;31.27;26.30;101110.34;4994950;28;20013;-88
2022/06/17 09:02:05;;;;;;;;;;;;;;;30.76;26.39;101102.31;4972528;28;19999;-89
2022/06/17 09:04:45;;;;;;;;;;;;;;;30.94;25.91;101100.03;4985021;28;20377;-90
2022/06/17 09:07:29;;;;;;;;;;;;;;;30.45;26.98;101102.47;4993920;28;19922;-88
2022/06/17 09:10:20;;;;;;;;;;;;;;;30.77;26.55;101098.44;4997239;28;20782;-89
2022/06/17 09:12:51;;;;;;;;;;;;;;;30.66;27.42;101091.28;4991796;28;19953;-88
2022/06/17 09:15:17;;;;;;;;;;;;;;;30.23;27.70;101096.44;4991794;28;20329;-88
2022/06/17 09:18:01;;;;;;;;;;;;;;;30.40;27.34;101104.44;4997165;28;20431;-90
2022/06/17 09:20:42;;;;;;;;;;;;;;;30.92;26.65;101089.22;4980122;28;20325;-89
2022/06/17 09:23:09;;;;;;;;;;;;;;;31.04;26.07;101089.69;4992886;28;19957;-91
2022/06/17 09:25:45;;;;;;;;;;;;;;;31.60;26.22;101082.88;4985251;28;20005;-93
2022/06/17 09:28:34;;;;;;;;;;;;;;;31.68;25.53;101090.59;4990678;28;19925;-92
2022/06/17 09:31:22;;;;;;;;;;;;;;;31.41;25.96;101093.06;4993443;28;19964;-88
2022/06/17 09:34:07;;;;;;;;;;;;;;;32.24;24.05;101080.00;5000701;28;19925;-86
2022/06/17 09:36:54;;;;;;;;;;;;;;;32.77;24.97;101088.25;4977689;28;19973;-81
2022/06/17 09:39:53;;;;;;;;;;;;;;;33.63;24.30;101091.66;4981257;28;19924;-88
2022/06/17 09:42:34;;;;;;;;;;;;;;;;;;;;;
2022/06/17 09:45:15;;;;;;;;;;;;;;;33.52;24.39;101094.91;5000419;28;19981;-86
2022/06/17 09:47:47;;;;;;;;;;;;;;;33.95;24.92;101089.97;4984853;28;19947;-87
2022/06/17 09:50:19;;;;;;;;;;;;;;;34.06;24.68;101096.16;4999146;28;19933;-89
2022/06/17 09:52:47;;;;;;;;;;;;;;;33.86;24.48;101097.41;4988938;28;19977;-89
2022/06/17 09:55:21;;;;;;;;;;;;;;;34.41;24.89;101099.41;5012950;28;19910;-89
2022/06/17 09:57:53;;;;;;;;;;;;;;;34.80;24.07;101093.28;5002897;28;19920;-88
2022/06/17 10:00:19;;;;;;;;;;;;;;;35.03;22.92;101094.13;5004847;28;20287;-89
2022/06/17 10:02:48;;;;;;;;;;;;;;;34.81;24.59;101097.72;4998127;28;19906;-88
2022/06/17 10:05:13;;;;;;;;;;;;;;;35.03;22.71;101091.34;4981672;28;19933;-88
2022/06/17 10:08:02;;;;;;;;;;;;;;;35.19;23.08;101096.56;4987664;28;20373;-85
2022/06/17 10:10:27;;;;;;;;;;;;;;;35.87;22.07;101095.41;4987301;28;20040;-87
2022/06/17 10:12:59;;;;;;;;;;;;;;;35.92;21.45;101095.28;4997184;28;19952;-87
2022/06/17 10:18:39;;;;;;;;;;;;;;;35.93;21.52;101080.13;4983053;28;19918;-87
2022/06/17 10:21:13;;;;;;;;;;;;;;;35.22;22.35;101093.16;4972117;28;19914;-87
2022/06/17 10:23:45;;;;;;;;;;;;;;;36.31;22.67;101079.63;5005605;28;19981;-88
2022/06/17 10:26:29;;;;;;;;;;;;;;;36.20;21.85;101083.03;4989843;28;19924;-88
2022/06/17 10:29:03;;;;;;;;;;;;;;;35.13;24.07;101090.31;5012837;28;20021;-87
2022/06/17 10:31:37;;;;;;;;;;;;;;;35.01;24.35;101082.44;4967585;28;19936;-87
2022/06/17 10:34:04;;;;;;;;;;;;;;;34.00;23.89;101086.28;5008233;28;19941;-87
2022/06/17 10:36:30;;;;;;;;;;;;;;;34.60;24.54;101083.38;4969527;28;20370;-87
2022/06/17 10:38:56;;;;;;;;;;;;;;;34.93;25.13;101091.56;4997147;28;19918;-87
2022/06/17 10:41:21;;;;;;;;;;;;;;;33.53;24.88;101083.47;5000389;28;19910;-86
2022/06/17 10:43:48;;;;;;;;;;;;;;;32.99;27.25;101074.56;4996194;28;19910;-86
2022/06/17 10:46:14;;;;;;;;;;;;;;;32.73;28.16;101076.06;4993793;28;19913;-89
2022/06/17 10:48:59;;;;;;;;;;;;;;;32.02;28.08;101066.66;5008805;28;19920;-87
2022/06/17 10:51:25;;;;;;;;;;;;;;;30.40;32.53;101071.97;4971502;28;19925;-87
2022/06/17 10:53:51;;;;;;;;;;;;;;;30.21;33.92;101079.25;4991133;28;20231;-85
2022/06/17 10:56:27;;;;;;;;;;;;;;;30.26;33.51;101068.16;4980335;28;19921;-87
2022/06/17 10:58:56;;;;;;;;;;;;;;;29.42;31.71;101076.84;4989058;28;19909;-87
2022/06/17 11:01:22;;;;;;;;;;;;;;;29.05;34.49;101066.00;4992646;28;19998;-87
2022/06/17 11:03:48;;;;;;;;;;;;;;;28.82;35.55;101070.97;4991055;28;20230;-87
2022/06/17 11:06:14;;;;;;;;;;;;;;;29.16;34.12;101064.94;4982704;28;19921;-86
2022/06/17 11:08:49;;;;;;;;;;;;;;;28.22;35.30;101069.59;5009785;28;20386;-85
2022/06/17 11:14:03;;;;;;;;;;;;;;;28.63;35.04;101055.94;4985125;28;20278;-88
2022/06/17 11:16:34;;;;;;;;;;;;;;;28.24;34.57;101052.72;4979174;28;19940;-88
2022/06/17 11:19:03;;;;;;;;;;;;;;;28.19;34.84;101050.81;4984612;28;19944;-87
2022/06/17 11:21:30;;;;;;;;;;;;;;;27.86;35.65;101050.06;4981174;28;19913;-87
2022/06/17 11:23:57;;;;;;;;;;;;;;;27.74;35.45;101049.38;4985213;28;19910;-86
2022/06/17 11:26:30;;;;;;;;;;;;;;;27.62;36.98;101065.34;4991991;28;19914;-86
2022/06/17 11:29:00;;;;;;;;;;;;;;;27.74;36.76;101057.69;4982608;28;19980;-87
2022/06/17 11:31:28;;;;;;;;;;;;;;;27.96;35.04;101057.59;4986614;28;19952;-88
2022/06/17 11:33:56;;;;;;;;;;;;;;;28.04;33.25;101059.81;4994547;28;19917;-86
2022/06/17 11:36:24;;;;;;;;;;;;;;;28.28;33.23;101060.22;5009577;28;19910;-88
2022/06/17 11:38:50;;;;;;;;;;;;;;;28.65;32.06;101061.22;4978957;28;19929;-87
2022/06/17 11:41:23;;;;;;;;;;;;;;;28.59;31.64;101060.38;4972966;28;20274;-88
2022/06/17 11:43:50;;;;;;;;;;;;;;;28.77;32.09;101059.03;4984782;28;19924;-88
2022/06/17 11:46:23;;;;;;;;;;;;;;;29.04;32.34;101050.50;4992429;28;19978;-87
2022/06/17 11:48:55;;;;;;;;;;;;;;;28.68;31.19;101053.22;4982346;28;20366;-87
2022/06/17 11:51:25;;;;;;;;;;;;;;;28.47;31.84;101045.94;4965213;28;20008;-88
2022/06/17 11:53:54;;;;;;;;;;;;;;;28.19;30.46;101054.38;4984507;28;19980;-92
2022/06/17 11:56:30;;;;;;;;;;;;;;;28.10;32.66;101049.66;4978264;28;19984;-86
2022/06/17 11:59:07;;;;;;;;;;;;;;;28.06;31.86;101045.75;4965998;28;20298;-86
2022/06/17 12:01:33;;;;;;;;;;;;;;;27.99;31.79;101046.81;4960460;28;19972;-86
2022/06/17 12:03:58;;;;;;;;;;;;;;;28.37;30.85;101053.06;4982690;28;19913;-90
2022/06/17 12:06:30;;;;;;;;;;;;;;;28.55;29.35;101050.97;4978585;28;19924;-89
2022/06/17 12:09:01;;;;;;;;;;;;;;;28.69;29.42;101043.81;4969460;28;19917;-90
2022/06/17 12:11:44;;;;;;;;;;;;;;;28.79;30.13;101046.59;4981800;28;19914;-89
2022/06/17 12:14:24;;;;;;;;;;;;;;;28.45;29.86;101031.53;4992638;28;20408;-88
2022/06/17 12:16:50;;;;;;;;;;;;;;;28.05;30.65;101036.63;4972518;28;19928;-90
2022/06/17 12:19:20;;;;;;;;;;;;;;;27.86;30.73;101041.78;4994497;28;19914;-86
2022/06/17 12:21:59;;;;;;;;;;;;;;;27.88;30.88;101030.44;4978576;28;19913;-86
2022/06/17 12:24:33;;;;;;;;;;;;;;;28.01;30.70;101031.91;4983559;28;20393;-86
2022/06/17 12:27:17;;;;;;;;;;;;;;;27.81;30.83;101032.59;5002336;28;19902;-88
2022/06/17 12:29:46;;;;;;;;;;;;;;;27.50;30.21;101035.97;4993026;28;19956;-87
2022/06/17 12:32:31;;;;;;;;;;;;;;;27.00;30.62;101028.91;4999001;28;19936;-89
2022/06/17 12:35:22;;;;;;;;;;;;;;;26.70;32.13;101038.53;4991009;28;19910;-88
2022/06/17 12:38:06;;;;;;;;;;;;;;;26.53;33.19;101035.84;5004295;28;19920;-87
2022/06/17 12:40:31;;;;;;;;;;;;;;;26.43;32.88;101024.69;5001373;28;19929;-86
2022/06/17 12:42:59;;;;;;;;;;;;;;;26.27;33.22;101029.22;4995785;28;19921;-86
2022/06/17 12:45:33;;;;;;;;;;;;;;;25.88;33.22;101023.72;4987685;28;19914;-89
2022/06/17 12:48:26;;;;;;;;;;;;;;;26.12;34.42;101029.00;4981990;28;19936;-86
2022/06/17 12:53:54;;;;;;;;;;;;;;;25.85;34.04;101024.22;4989128;28;20032;-88
2022/06/17 12:56:38;;;;;;;;;;;;;;;25.78;34.81;101029.06;4999689;28;19973;-90
2022/06/17 12:59:22;;;;;;;;;;;;;;;25.63;35.79;101023.31;4990782;28;19929;-85
2022/06/17 13:02:03;;;;;;;;;;;;;;;25.81;35.41;101016.72;4973941;28;19914;-87
2022/06/17 13:04:32;;;;;;;;;;;;;;;25.85;34.78;101018.72;4999209;28;19925;-88
2022/06/17 13:07:16;;;;;;;;;;;;;;;25.88;34.49;101012.72;4997059;28;19916;-87
2022/06/17 13:09:47;;;;;;;;;;;;;;;25.53;34.53;101012.19;4995957;28;19960;-87
2022/06/17 13:12:17;;;;;;;;;;;;;;;25.61;35.31;101018.06;4982508;28;19937;-86
2022/06/17 13:14:45;;;;;;;;;;;;;;;25.55;36.19;101012.75;4976769;28;19959;-88
2022/06/17 13:17:37;;;;;;;;;;;;;;;25.59;36.72;101008.41;4994093;28;19913;-87
2022/06/17 13:20:04;;;;;;;;;;;;;;;25.83;36.65;101003.53;4972653;28;19910;-83
2022/06/17 13:22:30;;;;;;;;;;;;;;;25.81;35.43;100998.25;4968877;28;20004;-88
2022/06/17 13:25:05;;;;;;;;;;;;;;;25.76;35.52;100995.44;4992489;28;19949;-84
2022/06/17 13:27:36;;;;;;;;;;;;;;;25.52;35.26;100988.47;4987149;28;19914;-85
2022/06/17 13:30:08;;;;;;;;;;;;;;;25.12;36.41;100981.22;4981151;28;19918;-84
2022/06/17 13:32:45;;;;;;;;;;;;;;;25.40;36.52;100988.56;4993816;28;19918;-81
2022/06/17 13:35:13;;;;;;;;;;;;;;;25.37;35.35;100989.91;4994526;28;20030;-80
2022/06/17 13:37:47;;;;;;;;;;;;;;;25.34;35.36;100984.91;4993276;28;19909;-80
2022/06/17 13:40:24;;;;;;;;;;;;;;;25.32;35.92;100989.84;4990831;28;19983;-81
2022/06/17 13:42:51;;;;;;;;;;;;;;;25.16;36.43;100987.88;4987200;28;19952;-81